createdAt,value
2023-06-01T00:00:13.802Z,95156.00
2023-06-01T00:01:13.782Z,95154.00
2023-06-01T00:02:13.824Z,95158.00
2023-06-01T00:03:13.967Z,95156.00
2023-06-01T00:04:13.827Z,95158.00
2023-06-01T00:05:13.802Z,95158.00
2023-06-01T00:06:13.764Z,95160.00
2023-06-01T00:07:13.791Z,95164.00
2023-06-01T00:08:13.783Z,95164.00
2023-06-01T00:09:13.764Z,95162.00
2023-06-01T00:10:13.787Z,95164.00
2023-06-01T00:11:13.761Z,95172.00
2023-06-01T00:12:13.754Z,95172.00
2023-06-01T00:13:13.799Z,95176.00
2023-06-01T00:14:13.826Z,95172.00
2023-06-01T00:15:13.882Z,95174.00
2023-06-01T00:16:13.939Z,95174.00
2023-06-01T00:17:13.953Z,95178.00
2023-06-01T00:18:14.187Z,95174.00
2023-06-01T00:19:14.018Z,95180.00
2023-06-01T00:20:14.087Z,95176.00
2023-06-01T00:21:14.084Z,95180.00
2023-06-01T00:22:14.150Z,95182.00
2023-06-01T00:23:14.194Z,95178.00
2023-06-01T00:24:14.252Z,95174.00
2023-06-01T00:25:14.310Z,95180.00
2023-06-01T00:26:14.936Z,95174.00
2023-06-01T00:27:14.360Z,95174.00
2023-06-01T00:28:14.371Z,95164.00
2023-06-01T00:29:14.427Z,95162.00
2023-06-01T00:30:14.456Z,95162.00
2023-06-01T00:31:14.551Z,95164.00
2023-06-01T00:32:14.544Z,95162.00
2023-06-01T00:33:14.663Z,95172.00
2023-06-01T00:34:14.600Z,95162.00
2023-06-01T00:35:14.657Z,95160.00
2023-06-01T00:36:14.687Z,95162.00
2023-06-01T00:37:14.698Z,95160.00
2023-06-01T00:38:14.743Z,95160.00
2023-06-01T00:39:14.802Z,95158.00
2023-06-01T00:40:14.802Z,95160.00
2023-06-01T00:41:14.854Z,95164.00
2023-06-01T00:42:14.897Z,95158.00
2023-06-01T00:43:14.925Z,95162.00
2023-06-01T00:44:14.963Z,95162.00
2023-06-01T00:45:15.022Z,95164.00
2023-06-01T00:46:15.060Z,95162.00
2023-06-01T00:47:15.105Z,95164.00
2023-06-01T00:48:15.136Z,95164.00
2023-06-01T00:49:15.168Z,95172.00
2023-06-01T00:50:15.202Z,95172.00
2023-06-01T00:51:15.193Z,95172.00
2023-06-01T00:52:15.166Z,95172.00
2023-06-01T00:53:15.213Z,95174.00
2023-06-01T00:54:15.221Z,95174.00
2023-06-01T00:55:15.151Z,95174.00
2023-06-01T00:56:15.155Z,95164.00
2023-06-01T00:57:15.174Z,95164.00
2023-06-01T00:58:15.170Z,95162.00
2023-06-01T00:59:15.147Z,95164.00
2023-06-01T01:00:15.162Z,95172.00
2023-06-01T01:01:15.177Z,95162.00
2023-06-01T01:02:15.156Z,95164.00
2023-06-01T01:03:15.258Z,95162.00
2023-06-01T01:04:15.288Z,95162.00
2023-06-01T01:05:15.245Z,95162.00
2023-06-01T01:06:15.284Z,95162.00
2023-06-01T01:07:15.329Z,95162.00
2023-06-01T01:08:15.365Z,95160.00
2023-06-01T01:09:15.408Z,95158.00
2023-06-01T01:10:15.461Z,95158.00
2023-06-01T01:11:15.478Z,95158.00
2023-06-01T01:12:15.541Z,95158.00
2023-06-01T01:13:15.945Z,95158.00
2023-06-01T01:14:15.617Z,95158.00
2023-06-01T01:15:15.656Z,95160.00
2023-06-01T01:16:15.745Z,95156.00
2023-06-01T01:17:15.795Z,95158.00
2023-06-01T01:18:15.743Z,95160.00
2023-06-01T01:19:15.782Z,95162.00
2023-06-01T01:20:15.859Z,95162.00
2023-06-01T01:21:15.896Z,95162.00
2023-06-01T01:22:15.912Z,95172.00
2023-06-01T01:23:15.972Z,95172.00
2023-06-01T01:24:15.986Z,95172.00
2023-06-01T01:25:16.062Z,95172.00
2023-06-01T01:26:16.057Z,95172.00
2023-06-01T01:27:16.112Z,95172.00
2023-06-01T01:28:16.105Z,95174.00
2023-06-01T01:29:16.075Z,95164.00
2023-06-01T01:30:16.074Z,95172.00
2023-06-01T01:31:16.115Z,95172.00
2023-06-01T01:32:16.096Z,95172.00
2023-06-01T01:33:16.120Z,95176.00
2023-06-01T01:34:16.104Z,95172.00
2023-06-01T01:35:16.068Z,95174.00
2023-06-01T01:36:16.059Z,95174.00
2023-06-01T01:37:16.069Z,95172.00
2023-06-01T01:38:16.061Z,95176.00
2023-06-01T01:39:16.032Z,95176.00
2023-06-01T01:40:16.086Z,95164.00
2023-06-01T01:41:16.053Z,95164.00
2023-06-01T01:42:16.059Z,95164.00
2023-06-01T01:43:16.083Z,95174.00
2023-06-01T01:44:16.067Z,95172.00
2023-06-01T01:46:16.114Z,95174.00
2023-06-01T01:47:16.181Z,95176.00
2023-06-01T01:48:16.220Z,95176.00
2023-06-01T01:49:16.223Z,95176.00
2023-06-01T01:50:16.281Z,95172.00
2023-06-01T01:51:16.284Z,95176.00
2023-06-01T01:52:16.337Z,95172.00
2023-06-01T01:53:16.383Z,95174.00
2023-06-01T01:54:16.388Z,95174.00
2023-06-01T01:55:16.405Z,95172.00
2023-06-01T01:56:16.402Z,95164.00
2023-06-01T01:57:16.419Z,95162.00
2023-06-01T01:58:16.392Z,95172.00
2023-06-01T01:59:16.382Z,95172.00
2023-06-01T02:00:16.368Z,95164.00
2023-06-01T02:01:16.393Z,95172.00
2023-06-01T02:02:16.490Z,95172.00
2023-06-01T02:03:16.481Z,95164.00
2023-06-01T02:04:16.352Z,95172.00
2023-06-01T02:05:16.356Z,95172.00
2023-06-01T02:06:16.353Z,95172.00
2023-06-01T02:07:16.385Z,95172.00
2023-06-01T02:08:16.428Z,95174.00
2023-06-01T02:09:16.438Z,95164.00
2023-06-01T02:10:16.423Z,95174.00
2023-06-01T02:11:16.444Z,95176.00
2023-06-01T02:12:16.405Z,95164.00
2023-06-01T02:13:16.451Z,95164.00
2023-06-01T02:14:16.449Z,95174.00
2023-06-01T02:15:16.507Z,95174.00
2023-06-01T02:16:16.562Z,95172.00
2023-06-01T02:17:16.562Z,95164.00
2023-06-01T02:18:16.615Z,95172.00
2023-06-01T02:19:16.749Z,95162.00
2023-06-01T02:20:16.649Z,95172.00
2023-06-01T02:21:16.721Z,95174.00
2023-06-01T02:22:16.666Z,95174.00
2023-06-01T02:23:16.705Z,95178.00
2023-06-01T02:24:16.758Z,95180.00
2023-06-01T02:25:16.791Z,95180.00
2023-06-01T02:26:16.840Z,95176.00
2023-06-01T02:27:16.862Z,95178.00
2023-06-01T02:28:16.921Z,95176.00
2023-06-01T02:29:16.947Z,95178.00
2023-06-01T02:30:16.979Z,95176.00
2023-06-01T02:31:17.074Z,95176.00
2023-06-01T02:32:17.097Z,95174.00
2023-06-01T02:33:17.118Z,95174.00
2023-06-01T02:34:17.172Z,95174.00
2023-06-01T02:35:17.211Z,95176.00
2023-06-01T02:36:17.226Z,95176.00
2023-06-01T02:37:17.293Z,95178.00
2023-06-01T02:38:17.317Z,95172.00
2023-06-01T02:39:17.370Z,95176.00
2023-06-01T02:40:17.383Z,95176.00
2023-06-01T02:41:17.421Z,95176.00
2023-06-01T02:42:17.445Z,95174.00
2023-06-01T02:43:17.482Z,95174.00
2023-06-01T02:44:17.560Z,95176.00
2023-06-01T02:45:17.573Z,95176.00
2023-06-01T02:46:17.594Z,95176.00
2023-06-01T02:47:17.578Z,95178.00
2023-06-01T02:48:17.554Z,95180.00
2023-06-01T02:49:17.547Z,95178.00
2023-06-01T02:50:17.546Z,95176.00
2023-06-01T02:51:17.557Z,95176.00
2023-06-01T02:52:17.543Z,95176.00
2023-06-01T02:53:17.584Z,95176.00
2023-06-01T02:54:17.562Z,95174.00
2023-06-01T02:55:17.553Z,95176.00
2023-06-01T02:56:17.603Z,95176.00
2023-06-01T02:57:17.684Z,95178.00
2023-06-01T02:58:17.728Z,95174.00
2023-06-01T02:59:17.758Z,95176.00
2023-06-01T03:00:17.775Z,95176.00
2023-06-01T03:01:17.839Z,95176.00
2023-06-01T03:02:17.837Z,95176.00
2023-06-01T03:03:17.861Z,95172.00
2023-06-01T03:04:17.919Z,95174.00
2023-06-01T03:05:17.916Z,95174.00
2023-06-01T03:06:17.964Z,95174.00
2023-06-01T03:07:17.989Z,95176.00
2023-06-01T03:08:17.989Z,95174.00
2023-06-01T03:09:17.992Z,95172.00
2023-06-01T03:10:18.040Z,95174.00
2023-06-01T03:11:18.004Z,95174.00
2023-06-01T03:12:18.030Z,95174.00
2023-06-01T03:13:18.076Z,95174.00
2023-06-01T03:14:18.087Z,95174.00
2023-06-01T03:15:18.129Z,95174.00
2023-06-01T03:16:18.202Z,95174.00
2023-06-01T03:17:18.138Z,95174.00
2023-06-01T03:18:18.142Z,95172.00
2023-06-01T03:19:18.150Z,95174.00
2023-06-01T03:20:18.164Z,95174.00
2023-06-01T03:21:18.204Z,95176.00
2023-06-01T03:22:18.255Z,95176.00
2023-06-01T03:23:18.225Z,95176.00
2023-06-01T03:24:18.228Z,95176.00
2023-06-01T03:25:18.257Z,95178.00
2023-06-01T03:26:18.246Z,95180.00
2023-06-01T03:27:18.302Z,95182.00
2023-06-01T03:28:18.350Z,95182.00
2023-06-01T03:29:18.475Z,95180.00
2023-06-01T03:30:18.413Z,95180.00
2023-06-01T03:31:18.460Z,95180.00
2023-06-01T03:32:18.491Z,95182.00
2023-06-01T03:33:18.488Z,95180.00
2023-06-01T03:34:18.516Z,95180.00
2023-06-01T03:35:18.596Z,95182.00
2023-06-01T03:36:18.567Z,95182.00
2023-06-01T03:37:18.637Z,95184.00
2023-06-01T03:38:18.650Z,95184.00
2023-06-01T03:39:18.693Z,95186.00
2023-06-01T03:40:18.733Z,95186.00
2023-06-01T03:41:18.763Z,95186.00
2023-06-01T03:42:18.821Z,95184.00
2023-06-01T03:43:18.840Z,95184.00
2023-06-01T03:44:18.891Z,95184.00
2023-06-01T03:45:18.915Z,95184.00
2023-06-01T03:46:19.026Z,95186.00
2023-06-01T03:47:18.944Z,95184.00
2023-06-01T03:48:18.993Z,95186.00
2023-06-01T03:49:19.026Z,95186.00
2023-06-01T03:50:19.077Z,95187.00
2023-06-01T03:51:19.111Z,95189.00
2023-06-01T03:52:19.086Z,95189.00
2023-06-01T03:53:19.153Z,95189.00
2023-06-01T03:54:19.149Z,95193.00
2023-06-01T03:55:19.173Z,95193.00
2023-06-01T03:56:19.244Z,95195.00
2023-06-01T03:57:19.246Z,95193.00
2023-06-01T03:58:19.306Z,95191.00
2023-06-01T03:59:19.362Z,95191.00
2023-06-01T04:00:19.620Z,95191.00
2023-06-01T04:01:19.383Z,95191.00
2023-06-01T04:02:19.466Z,95191.00
2023-06-01T04:03:19.513Z,95191.00
2023-06-01T04:04:19.500Z,95191.00
2023-06-01T04:05:19.520Z,95191.00
2023-06-01T04:06:19.523Z,95189.00
2023-06-01T04:07:19.598Z,95189.00
2023-06-01T04:08:19.629Z,95191.00
2023-06-01T04:09:19.652Z,95191.00
2023-06-01T04:10:19.708Z,95189.00
2023-06-01T04:11:19.706Z,95187.00
2023-06-01T04:12:19.753Z,95189.00
2023-06-01T04:13:19.793Z,95189.00
2023-06-01T04:14:19.810Z,95189.00
2023-06-01T04:15:19.856Z,95187.00
2023-06-01T04:16:19.904Z,95187.00
2023-06-01T04:17:19.923Z,95186.00
2023-06-01T04:18:19.980Z,95187.00
2023-06-01T04:19:20.048Z,95186.00
2023-06-01T04:20:20.078Z,95186.00
2023-06-01T04:21:20.071Z,95186.00
2023-06-01T04:22:20.113Z,95184.00
2023-06-01T04:23:20.186Z,95186.00
2023-06-01T04:24:20.224Z,95187.00
2023-06-01T04:25:20.291Z,95189.00
2023-06-01T04:26:20.286Z,95187.00
2023-06-01T04:27:20.301Z,95189.00
2023-06-01T04:28:20.334Z,95187.00
2023-06-01T04:29:20.359Z,95187.00
2023-06-01T04:30:20.379Z,95189.00
2023-06-01T04:31:20.715Z,95187.00
2023-06-01T04:32:20.484Z,95187.00
2023-06-01T04:33:20.522Z,95187.00
2023-06-01T04:34:20.572Z,95189.00
2023-06-01T04:35:20.640Z,95187.00
2023-06-01T04:36:20.649Z,95189.00
2023-06-01T04:37:20.671Z,95189.00
2023-06-01T04:38:20.680Z,95187.00
2023-06-01T04:39:20.674Z,95187.00
2023-06-01T04:40:20.677Z,95186.00
2023-06-01T04:41:20.693Z,95186.00
2023-06-01T04:42:20.670Z,95182.00
2023-06-01T04:43:20.668Z,95187.00
2023-06-01T04:44:20.623Z,95186.00
2023-06-01T04:45:20.664Z,95182.00
2023-06-01T04:46:20.741Z,95182.00
2023-06-01T04:47:20.645Z,95182.00
2023-06-01T04:48:20.636Z,95184.00
2023-06-01T04:49:20.665Z,95184.00
2023-06-01T04:50:20.680Z,95180.00
2023-06-01T04:51:20.628Z,95182.00
2023-06-01T04:52:20.638Z,95182.00
2023-06-01T04:53:20.650Z,95182.00
2023-06-01T04:54:20.700Z,95186.00
2023-06-01T04:55:20.699Z,95187.00
2023-06-01T04:56:20.761Z,95187.00
2023-06-01T04:57:20.706Z,95186.00
2023-06-01T04:58:20.684Z,95186.00
2023-06-01T04:59:20.688Z,95186.00
2023-06-01T05:00:20.653Z,95184.00
2023-06-01T05:01:27.669Z,95186.00
2023-06-01T05:02:20.679Z,95184.00
2023-06-01T05:03:20.763Z,95189.00
2023-06-01T05:04:20.713Z,95187.00
2023-06-01T05:05:20.627Z,95187.00
2023-06-01T05:06:20.635Z,95186.00
2023-06-01T05:07:20.644Z,95186.00
2023-06-01T05:08:20.647Z,95182.00
2023-06-01T05:09:20.606Z,95184.00
2023-06-01T05:10:20.613Z,95182.00
2023-06-01T05:11:20.600Z,95184.00
2023-06-01T05:12:21.778Z,95182.00
2023-06-01T05:13:20.603Z,95182.00
2023-06-01T05:14:20.579Z,95182.00
2023-06-01T05:15:20.574Z,95182.00
2023-06-01T05:16:20.652Z,95180.00
2023-06-01T05:17:20.572Z,95182.00
2023-06-01T05:18:20.631Z,95182.00
2023-06-01T05:19:20.557Z,95180.00
2023-06-01T05:20:20.551Z,95180.00
2023-06-01T05:21:20.580Z,95178.00
2023-06-01T05:22:20.513Z,95178.00
2023-06-01T05:23:20.783Z,95176.00
2023-06-01T05:24:20.510Z,95174.00
2023-06-01T05:25:20.533Z,95176.00
2023-06-01T05:26:20.530Z,95176.00
2023-06-01T05:27:20.586Z,95174.00
2023-06-01T05:28:20.504Z,95172.00
2023-06-01T05:29:20.484Z,95164.00
2023-06-01T05:30:20.483Z,95162.00
2023-06-01T05:31:20.527Z,95158.00
2023-06-01T05:32:20.469Z,95160.00
2023-06-01T05:33:20.621Z,95160.00
2023-06-01T05:34:20.452Z,95156.00
2023-06-01T05:35:20.458Z,95158.00
2023-06-01T05:36:20.476Z,95158.00
2023-06-01T05:37:20.428Z,95156.00
2023-06-01T05:38:20.576Z,95156.00
2023-06-01T05:39:20.408Z,95156.00
2023-06-01T05:40:20.422Z,95156.00
2023-06-01T05:41:20.426Z,95160.00
2023-06-01T05:42:20.424Z,95158.00
2023-06-01T05:43:20.616Z,95156.00
2023-06-01T05:44:20.378Z,95158.00
2023-06-01T05:45:27.390Z,95156.00
2023-06-01T05:46:20.539Z,95152.00
2023-06-01T05:47:20.369Z,95148.00
2023-06-01T05:48:20.370Z,95150.00
2023-06-01T05:49:20.632Z,95150.00
2023-06-01T05:50:20.327Z,95152.00
2023-06-01T05:51:20.347Z,95152.00
2023-06-01T05:52:20.334Z,95150.00
2023-06-01T05:53:20.328Z,95148.00
2023-06-01T05:54:20.342Z,95148.00
2023-06-01T05:55:20.307Z,95146.00
2023-06-01T05:56:20.321Z,95150.00
2023-06-01T05:57:20.296Z,95150.00
2023-06-01T05:58:20.399Z,95152.00
2023-06-01T05:59:20.284Z,95152.00
2023-06-01T06:00:20.283Z,95150.00
2023-06-01T06:01:20.278Z,95150.00
2023-06-01T06:02:20.374Z,95154.00
2023-06-01T06:03:20.290Z,95152.00
2023-06-01T06:04:20.723Z,95152.00
2023-06-01T06:05:21.253Z,95154.00
2023-06-01T06:06:21.629Z,95152.00
2023-06-01T06:07:20.230Z,95156.00
2023-06-01T06:08:20.242Z,95154.00
2023-06-01T06:09:20.241Z,95158.00
2023-06-01T06:10:20.209Z,95158.00
2023-06-01T06:11:20.230Z,95158.00
2023-06-01T06:12:20.197Z,95156.00
2023-06-01T06:13:20.199Z,95154.00
2023-06-01T06:14:20.229Z,95154.00
2023-06-01T06:15:20.191Z,95156.00
2023-06-01T06:16:20.244Z,95152.00
2023-06-01T06:17:20.141Z,95150.00
2023-06-01T06:18:20.200Z,95156.00
2023-06-01T06:19:20.638Z,95154.00
2023-06-01T06:20:20.168Z,95154.00
2023-06-01T06:21:20.224Z,95152.00
2023-06-01T06:22:20.114Z,95154.00
2023-06-01T06:23:20.091Z,95152.00
2023-06-01T06:24:20.135Z,95152.00
2023-06-01T06:25:20.084Z,95158.00
2023-06-01T06:26:20.125Z,95158.00
2023-06-01T06:27:20.116Z,95158.00
2023-06-01T06:28:20.118Z,95160.00
2023-06-01T06:29:20.160Z,95160.00
2023-06-01T06:30:20.066Z,95160.00
2023-06-01T06:31:20.050Z,95160.00
2023-06-01T06:32:20.169Z,95158.00
2023-06-01T06:33:20.153Z,95158.00
2023-06-01T06:34:20.099Z,95158.00
2023-06-01T06:35:20.042Z,95160.00
2023-06-01T06:36:20.062Z,95158.00
2023-06-01T06:37:20.027Z,95160.00
2023-06-01T06:38:20.021Z,95154.00
2023-06-01T06:39:20.054Z,95150.00
2023-06-01T06:40:20.008Z,95154.00
2023-06-01T06:41:20.050Z,95148.00
2023-06-01T06:42:19.996Z,95144.00
2023-06-01T06:43:20.022Z,95142.00
2023-06-01T06:44:20.133Z,95140.00
2023-06-01T06:45:19.967Z,95140.00
2023-06-01T06:46:20.009Z,95142.00
2023-06-01T06:47:20.069Z,95138.00
2023-06-01T06:48:20.006Z,95140.00
2023-06-01T06:49:19.964Z,95140.00
2023-06-01T06:50:19.953Z,95138.00
2023-06-01T06:51:20.063Z,95138.00
2023-06-01T06:52:19.950Z,95138.00
2023-06-01T06:53:19.921Z,95138.00
2023-06-01T06:54:20.137Z,95136.00
2023-06-01T06:55:19.912Z,95134.00
2023-06-01T06:56:19.895Z,95134.00
2023-06-01T06:57:19.907Z,95133.00
2023-06-01T06:58:19.891Z,95133.00
2023-06-01T06:59:19.871Z,95133.00
2023-06-01T07:00:19.942Z,95133.00
2023-06-01T07:01:19.923Z,95131.00
2023-06-01T07:02:19.880Z,95133.00
2023-06-01T07:03:19.967Z,95129.00
2023-06-01T07:04:19.883Z,95125.00
2023-06-01T07:05:19.851Z,95127.00
2023-06-01T07:06:19.851Z,95127.00
2023-06-01T07:07:19.809Z,95127.00
2023-06-01T07:08:19.824Z,95127.00
2023-06-01T07:09:19.836Z,95123.00
2023-06-01T07:10:19.895Z,95127.00
2023-06-01T07:11:19.789Z,95123.00
2023-06-01T07:12:19.779Z,95125.00
2023-06-01T07:13:19.772Z,95123.00
2023-06-01T07:14:19.761Z,95121.00
2023-06-01T07:15:20.157Z,95121.00
2023-06-01T07:16:19.776Z,95119.00
2023-06-01T07:17:19.757Z,95119.00
2023-06-01T07:18:19.711Z,95117.00
2023-06-01T07:19:19.736Z,95119.00
2023-06-01T07:20:19.708Z,95115.00
2023-06-01T07:21:19.696Z,95115.00
2023-06-01T07:22:19.727Z,95117.00
2023-06-01T07:23:19.746Z,95113.00
2023-06-01T07:24:19.748Z,95119.00
2023-06-01T07:25:20.656Z,95117.00
2023-06-01T07:26:19.757Z,95117.00
2023-06-01T07:27:19.755Z,95115.00
2023-06-01T07:28:19.754Z,95115.00
2023-06-01T07:29:19.782Z,95113.00
2023-06-01T07:30:19.732Z,95109.00
2023-06-01T07:31:19.811Z,95107.00
2023-06-01T07:32:19.822Z,95107.00
2023-06-01T07:33:19.770Z,95105.00
2023-06-01T07:34:19.746Z,95103.00
2023-06-01T07:35:19.744Z,95103.00
2023-06-01T07:36:19.748Z,95101.00
2023-06-01T07:37:19.745Z,95099.00
2023-06-01T07:38:19.718Z,95097.00
2023-06-01T07:39:19.732Z,95097.00
2023-06-01T07:40:20.149Z,95099.00
2023-06-01T07:41:19.849Z,95097.00
2023-06-01T07:42:19.870Z,95095.00
2023-06-01T07:43:19.973Z,95091.00
2023-06-01T07:44:20.013Z,95095.00
2023-06-01T07:45:20.048Z,95095.00
2023-06-01T07:46:20.220Z,95089.00
2023-06-01T07:47:20.132Z,95093.00
2023-06-01T07:48:20.156Z,95089.00
2023-06-01T07:49:20.279Z,95087.00
2023-06-01T07:50:20.328Z,95086.00
2023-06-01T07:51:20.389Z,95082.00
2023-06-01T07:52:20.383Z,95084.00
2023-06-01T07:53:20.488Z,95082.00
2023-06-01T07:54:20.524Z,95082.00
2023-06-01T07:55:20.618Z,95082.00
2023-06-01T07:56:20.611Z,95076.00
2023-06-01T07:57:20.643Z,95078.00
2023-06-01T07:58:20.678Z,95076.00
2023-06-01T07:59:20.748Z,95076.00
2023-06-01T08:00:20.802Z,95074.00
2023-06-01T08:01:21.454Z,95072.00
2023-06-01T08:02:21.904Z,95070.00
2023-06-01T08:03:21.051Z,95072.00
2023-06-01T08:04:20.974Z,95070.00
2023-06-01T08:05:21.019Z,95070.00
2023-06-01T08:06:20.970Z,95066.00
2023-06-01T08:07:21.054Z,95068.00
2023-06-01T08:08:21.059Z,95062.00
2023-06-01T08:09:21.104Z,95064.00
2023-06-01T08:10:21.198Z,95064.00
2023-06-01T08:11:21.134Z,95060.00
2023-06-01T08:12:21.190Z,95062.00
2023-06-01T08:13:21.195Z,95060.00
2023-06-01T08:14:21.247Z,95062.00
2023-06-01T08:15:21.267Z,95064.00
2023-06-01T08:16:21.291Z,95060.00
2023-06-01T08:17:21.407Z,95056.00
2023-06-01T08:18:21.341Z,95060.00
2023-06-01T08:19:21.336Z,95056.00
2023-06-01T08:20:21.720Z,95054.00
2023-06-01T08:21:21.433Z,95054.00
2023-06-01T08:22:21.392Z,95054.00
2023-06-01T08:23:21.441Z,95054.00
2023-06-01T08:24:21.430Z,95050.00
2023-06-01T08:25:21.447Z,95048.00
2023-06-01T08:26:21.431Z,95052.00
2023-06-01T08:27:24.194Z,95046.00
2023-06-01T08:28:21.481Z,95048.00
2023-06-01T08:29:30.908Z,95046.00
2023-06-01T08:30:22.734Z,95044.00
2023-06-01T08:31:21.482Z,95046.00
2023-06-01T08:32:21.449Z,95044.00
2023-06-01T08:33:21.394Z,95044.00
2023-06-01T08:34:21.416Z,95044.00
2023-06-01T08:35:21.692Z,95040.00
2023-06-01T08:36:21.417Z,95040.00
2023-06-01T08:37:21.407Z,95040.00
2023-06-01T08:38:21.376Z,95042.00
2023-06-01T08:39:21.364Z,95037.00
2023-06-01T08:40:21.479Z,95039.00
2023-06-01T08:41:21.378Z,95039.00
2023-06-01T08:42:21.379Z,95039.00
2023-06-01T08:43:21.364Z,95035.00
2023-06-01T08:44:21.331Z,95035.00
2023-06-01T08:45:21.690Z,95033.00
2023-06-01T08:46:21.349Z,95027.00
2023-06-01T08:47:21.320Z,95027.00
2023-06-01T08:48:24.304Z,95027.00
2023-06-01T08:49:21.314Z,95025.00
2023-06-01T08:50:21.735Z,95025.00
2023-06-01T08:51:21.290Z,95027.00
2023-06-01T08:52:21.268Z,95027.00
2023-06-01T08:53:21.267Z,95025.00
2023-06-01T08:54:21.271Z,95019.00
2023-06-01T08:55:21.690Z,95017.00
2023-06-01T08:56:21.239Z,95017.00
2023-06-01T08:57:21.248Z,95017.00
2023-06-01T08:58:21.246Z,95019.00
2023-06-01T08:59:21.262Z,95017.00
2023-06-01T09:00:21.761Z,95015.00
2023-06-01T09:01:21.265Z,95017.00
2023-06-01T09:02:21.175Z,95015.00
2023-06-01T09:03:21.362Z,95011.00
2023-06-01T09:04:21.172Z,95013.00
2023-06-01T09:05:21.179Z,95011.00
2023-06-01T09:06:21.190Z,95005.00
2023-06-01T09:07:21.160Z,95003.00
2023-06-01T09:08:21.165Z,94999.00
2023-06-01T09:09:21.181Z,94999.00
2023-06-01T09:10:21.148Z,94997.00
2023-06-01T09:11:21.125Z,94992.00
2023-06-01T09:12:21.134Z,94992.00
2023-06-01T09:13:21.104Z,94990.00
2023-06-01T09:14:21.099Z,94990.00
2023-06-01T09:15:21.700Z,94984.00
2023-06-01T09:16:21.195Z,94986.00
2023-06-01T09:17:21.094Z,94988.00
2023-06-01T09:18:21.085Z,94986.00
2023-06-01T09:19:21.069Z,94986.00
2023-06-01T09:20:21.189Z,94984.00
2023-06-01T09:21:21.090Z,94986.00
2023-06-01T09:22:21.070Z,94982.00
2023-06-01T09:23:21.047Z,94984.00
2023-06-01T09:24:21.054Z,94978.00
2023-06-01T09:25:21.026Z,94976.00
2023-06-01T09:26:21.037Z,94980.00
2023-06-01T09:27:21.041Z,94980.00
2023-06-01T09:28:21.008Z,94980.00
2023-06-01T09:29:21.012Z,94980.00
2023-06-01T09:30:21.022Z,94980.00
2023-06-01T09:31:21.021Z,94978.00
2023-06-01T09:32:20.962Z,94974.00
2023-06-01T09:33:21.019Z,94978.00
2023-06-01T09:34:21.005Z,94974.00
2023-06-01T09:35:20.959Z,94976.00
2023-06-01T09:36:21.230Z,94976.00
2023-06-01T09:37:20.979Z,94974.00
2023-06-01T09:38:20.944Z,94974.00
2023-06-01T09:39:20.916Z,94976.00
2023-06-01T09:40:20.926Z,94976.00
2023-06-01T09:41:20.941Z,94976.00
2023-06-01T09:42:20.896Z,94972.00
2023-06-01T09:43:20.902Z,94970.00
2023-06-01T09:44:20.909Z,94970.00
2023-06-01T09:45:20.875Z,94970.00
2023-06-01T09:46:20.868Z,94968.00
2023-06-01T09:47:20.940Z,94970.00
2023-06-01T09:48:20.924Z,94968.00
2023-06-01T09:49:20.870Z,94966.00
2023-06-01T09:50:20.887Z,94960.00
2023-06-01T09:51:21.302Z,94960.00
2023-06-01T09:52:20.858Z,94956.00
2023-06-01T09:53:20.825Z,94958.00
2023-06-01T09:54:20.863Z,94958.00
2023-06-01T09:55:20.815Z,94958.00
2023-06-01T09:56:21.233Z,94958.00
2023-06-01T09:57:20.870Z,94958.00
2023-06-01T09:58:20.903Z,94954.00
2023-06-01T09:59:20.970Z,94953.00
2023-06-01T10:00:20.966Z,94953.00
2023-06-01T10:01:21.242Z,94953.00
2023-06-01T10:02:21.011Z,94951.00
2023-06-01T10:03:21.079Z,94948.00
2023-06-01T10:04:21.005Z,94948.00
2023-06-01T10:05:21.016Z,94946.00
2023-06-01T10:06:21.037Z,94943.00
2023-06-01T10:07:21.027Z,94943.00
2023-06-01T10:08:21.031Z,94943.00
2023-06-01T10:09:21.103Z,94939.00
2023-06-01T10:10:21.057Z,94935.00
2023-06-01T10:11:21.439Z,94937.00
2023-06-01T10:12:21.340Z,94937.00
2023-06-01T10:13:21.344Z,94933.00
2023-06-01T10:14:22.197Z,94933.00
2023-06-01T10:16:22.182Z,94931.00
2023-06-01T10:17:21.754Z,94929.00
2023-06-01T10:18:21.506Z,94929.00
2023-06-01T10:19:22.622Z,94927.00
2023-06-01T10:20:21.280Z,94931.00
2023-06-01T10:21:22.491Z,94931.00
2023-06-01T10:22:22.561Z,94929.00
2023-06-01T10:23:30.195Z,94927.00
2023-06-01T10:24:22.722Z,94923.00
2023-06-01T10:25:21.343Z,94919.00
2023-06-01T10:26:21.277Z,94919.00
2023-06-01T10:27:21.259Z,94923.00
2023-06-01T10:28:21.679Z,94919.00
2023-06-01T10:29:21.863Z,94919.00
2023-06-01T10:30:21.556Z,94921.00
2023-06-01T10:31:21.060Z,94919.00
2023-06-01T10:32:21.628Z,94917.00
2023-06-01T10:33:28.857Z,94917.00
2023-06-01T10:34:23.516Z,94915.00
2023-06-01T10:35:21.170Z,94917.00
2023-06-01T10:36:21.279Z,94917.00
2023-06-01T10:37:21.732Z,94915.00
2023-06-01T10:38:21.314Z,94905.00
2023-06-01T10:39:21.408Z,94907.00
2023-06-01T10:40:21.486Z,94905.00
2023-06-01T10:41:21.520Z,94905.00
2023-06-01T10:42:21.551Z,94905.00
2023-06-01T10:43:21.646Z,94903.00
2023-06-01T10:44:21.735Z,94900.00
2023-06-01T10:45:21.728Z,94903.00
2023-06-01T10:46:21.834Z,94905.00
2023-06-01T10:47:21.909Z,94905.00
2023-06-01T10:48:21.848Z,94907.00
2023-06-01T10:49:21.888Z,94907.00
2023-06-01T10:50:21.997Z,94905.00
2023-06-01T10:51:22.010Z,94905.00
2023-06-01T10:52:22.245Z,94903.00
2023-06-01T10:53:22.058Z,94907.00
2023-06-01T10:54:22.089Z,94901.00
2023-06-01T10:55:23.999Z,94901.00
2023-06-01T10:56:22.372Z,94900.00
2023-06-01T10:57:24.094Z,94900.00
2023-06-01T10:58:22.367Z,94901.00
2023-06-01T10:59:22.380Z,94900.00
2023-06-01T11:00:22.444Z,94898.00
2023-06-01T11:01:22.505Z,94903.00
2023-06-01T11:02:22.480Z,94900.00
2023-06-01T11:03:22.621Z,94900.00
2023-06-01T11:04:22.603Z,94900.00
2023-06-01T11:05:22.552Z,94901.00
2023-06-01T11:06:22.546Z,94896.00
2023-06-01T11:07:22.772Z,94898.00
2023-06-01T11:08:22.601Z,94901.00
2023-06-01T11:09:22.641Z,94898.00
2023-06-01T11:10:22.710Z,94900.00
2023-06-01T11:11:22.789Z,94901.00
2023-06-01T11:12:22.778Z,94903.00
2023-06-01T11:13:22.800Z,94900.00
2023-06-01T11:14:22.999Z,94901.00
2023-06-01T11:15:22.939Z,94894.00
2023-06-01T11:16:23.013Z,94896.00
2023-06-01T11:17:23.307Z,94896.00
2023-06-01T11:18:23.059Z,94894.00
2023-06-01T11:19:23.132Z,94892.00
2023-06-01T11:20:23.163Z,94894.00
2023-06-01T11:21:24.221Z,94888.00
2023-06-01T11:22:23.380Z,94890.00
2023-06-01T11:23:23.246Z,94884.00
2023-06-01T11:24:23.324Z,94880.00
2023-06-01T11:25:23.466Z,94882.00
2023-06-01T11:26:23.401Z,94886.00
2023-06-01T11:27:23.351Z,94880.00
2023-06-01T11:28:23.773Z,94878.00
2023-06-01T11:29:23.380Z,94880.00
2023-06-01T11:30:23.395Z,94876.00
2023-06-01T11:31:25.185Z,94874.00
2023-06-01T11:32:23.482Z,94874.00
2023-06-01T11:33:23.779Z,94872.00
2023-06-01T11:34:23.530Z,94872.00
2023-06-01T11:35:23.593Z,94866.00
2023-06-01T11:36:23.613Z,94872.00
2023-06-01T11:37:23.700Z,94872.00
2023-06-01T11:38:23.762Z,94870.00
2023-06-01T11:39:23.722Z,94870.00
2023-06-01T11:40:24.746Z,94868.00
2023-06-01T11:41:23.837Z,94870.00
2023-06-01T11:42:23.859Z,94868.00
2023-06-01T11:43:23.891Z,94868.00
2023-06-01T11:44:23.908Z,94864.00
2023-06-01T11:45:23.915Z,94864.00
2023-06-01T11:46:23.964Z,94864.00